sensor_id;sensor_type;location;lat;lon;timestamp;noise_LAeq;noise_LA_min;noise_LA_max;noise_LA01;noise_LA95
63692;Laerm;49838;51.798;10.954;2023-12-29T00:01:34;49.65;39.57;67.98;;
63692;Laerm;49838;51.798;10.954;2023-12-29T00:04:03;50.41;40.78;70.58;;
63692;Laerm;49838;51.798;10.954;2023-12-29T00:06:30;49.45;39.28;68.98;;
63692;Laerm;49838;51.798;10.954;2023-12-29T00:08:58;51.66;37.71;74.23;;
63692;Laerm;49838;51.798;10.954;2023-12-29T00:11:26;47.68;37.19;70.00;;
63692;Laerm;49838;51.798;10.954;2023-12-29T00:13:53;54.65;40.99;73.34;;
63692;Laerm;49838;51.798;10.954;2023-12-29T00:16:20;51.71;39.56;72.73;;
63692;Laerm;49838;51.798;10.954;2023-12-29T00:18:48;52.80;40.83;75.21;;
63692;Laerm;49838;51.798;10.954;2023-12-29T00:21:16;48.48;37.37;74.68;;
63692;Laerm;49838;51.798;10.954;2023-12-29T00:23:43;46.61;38.54;63.25;;
63692;Laerm;49838;51.798;10.954;2023-12-29T00:26:11;54.31;40.53;70.82;;
63692;Laerm;49838;51.798;10.954;2023-12-29T00:28:38;44.76;36.89;63.14;;
63692;Laerm;49838;51.798;10.954;2023-12-29T00:31:06;50.00;36.68;74.96;;
63692;Laerm;49838;51.798;10.954;2023-12-29T00:33:33;56.47;40.40;71.23;;
63692;Laerm;49838;51.798;10.954;2023-12-29T00:36:01;48.12;38.22;63.29;;
63692;Laerm;49838;51.798;10.954;2023-12-29T00:38:29;47.13;37.31;65.06;;
63692;Laerm;49838;51.798;10.954;2023-12-29T00:40:56;45.45;36.31;63.34;;
63692;Laerm;49838;51.798;10.954;2023-12-29T00:43:24;45.53;35.01;70.20;;
63692;Laerm;49838;51.798;10.954;2023-12-29T00:45:51;41.79;35.55;55.21;;
63692;Laerm;49838;51.798;10.954;2023-12-29T00:48:18;53.69;35.06;73.01;;
63692;Laerm;49838;51.798;10.954;2023-12-29T00:50:46;50.20;37.02;70.26;;
63692;Laerm;49838;51.798;10.954;2023-12-29T00:53:13;47.22;34.85;63.83;;
63692;Laerm;49838;51.798;10.954;2023-12-29T00:55:42;45.76;33.75;61.82;;
63692;Laerm;49838;51.798;10.954;2023-12-29T00:58:09;44.06;35.17;63.95;;
63692;Laerm;49838;51.798;10.954;2023-12-29T01:00:36;43.44;34.33;58.81;;
63692;Laerm;49838;51.798;10.954;2023-12-29T01:03:04;40.11;33.01;60.92;;
63692;Laerm;49838;51.798;10.954;2023-12-29T01:05:31;41.76;32.74;54.49;;
63692;Laerm;49838;51.798;10.954;2023-12-29T01:07:58;43.20;34.05;63.33;;
63692;Laerm;49838;51.798;10.954;2023-12-29T01:10:25;38.76;33.18;55.84;;
63692;Laerm;49838;51.798;10.954;2023-12-29T01:12:53;47.72;34.31;65.06;;
63692;Laerm;49838;51.798;10.954;2023-12-29T01:15:21;46.98;35.50;63.78;;
63692;Laerm;49838;51.798;10.954;2023-12-29T01:17:48;37.83;31.81;49.02;;
63692;Laerm;49838;51.798;10.954;2023-12-29T01:20:15;44.07;36.16;56.33;;
63692;Laerm;49838;51.798;10.954;2023-12-29T01:22:42;43.13;34.71;62.53;;
63692;Laerm;49838;51.798;10.954;2023-12-29T01:25:10;41.91;32.12;63.02;;
63692;Laerm;49838;51.798;10.954;2023-12-29T01:27:37;39.22;30.27;50.78;;
63692;Laerm;49838;51.798;10.954;2023-12-29T01:30:07;40.79;30.15;62.84;;
63692;Laerm;49838;51.798;10.954;2023-12-29T01:32:35;42.72;33.59;57.49;;
63692;Laerm;49838;51.798;10.954;2023-12-29T01:35:03;33.47;30.12;43.43;;
63692;Laerm;49838;51.798;10.954;2023-12-29T01:37:31;36.61;30.97;49.96;;
63692;Laerm;49838;51.798;10.954;2023-12-29T01:39:59;46.93;32.02;69.22;;
63692;Laerm;49838;51.798;10.954;2023-12-29T01:42:26;42.21;31.58;58.55;;
63692;Laerm;49838;51.798;10.954;2023-12-29T01:44:54;46.61;32.35;65.24;;
63692;Laerm;49838;51.798;10.954;2023-12-29T01:47:23;36.80;30.83;53.59;;
63692;Laerm;49838;51.798;10.954;2023-12-29T01:49:50;40.39;32.38;62.90;;
63692;Laerm;49838;51.798;10.954;2023-12-29T01:52:18;37.10;31.08;56.30;;
63692;Laerm;49838;51.798;10.954;2023-12-29T01:54:46;37.95;31.66;52.49;;
63692;Laerm;49838;51.798;10.954;2023-12-29T01:57:14;42.91;31.53;64.16;;
63692;Laerm;49838;51.798;10.954;2023-12-29T01:59:42;37.20;31.69;54.85;;
63692;Laerm;49838;51.798;10.954;2023-12-29T02:02:11;37.85;29.96;55.83;;
63692;Laerm;49838;51.798;10.954;2023-12-29T02:04:41;35.33;29.91;51.27;;
63692;Laerm;49838;51.798;10.954;2023-12-29T02:07:08;40.49;29.62;62.43;;
63692;Laerm;49838;51.798;10.954;2023-12-29T02:09:36;37.67;29.57;54.90;;
63692;Laerm;49838;51.798;10.954;2023-12-29T02:12:04;44.24;32.23;67.82;;
63692;Laerm;49838;51.798;10.954;2023-12-29T02:14:31;36.62;29.47;54.32;;
63692;Laerm;49838;51.798;10.954;2023-12-29T02:17:12;32.96;29.38;41.57;;
63692;Laerm;49838;51.798;10.954;2023-12-29T02:19:43;34.32;29.29;52.48;;
63692;Laerm;49838;51.798;10.954;2023-12-29T02:22:11;35.45;29.19;52.24;;
63692;Laerm;49838;51.798;10.954;2023-12-29T02:24:39;35.28;28.86;46.59;;
63692;Laerm;49838;51.798;10.954;2023-12-29T02:27:12;36.81;29.93;53.48;;
63692;Laerm;49838;51.798;10.954;2023-12-29T02:29:44;47.31;30.50;67.03;;
63692;Laerm;49838;51.798;10.954;2023-12-29T02:32:16;43.76;29.90;63.64;;
63692;Laerm;49838;51.798;10.954;2023-12-29T02:34:47;36.15;29.86;51.61;;
63692;Laerm;49838;51.798;10.954;2023-12-29T02:37:15;33.28;29.14;50.46;;
63692;Laerm;49838;51.798;10.954;2023-12-29T02:39:43;33.19;29.05;45.24;;
63692;Laerm;49838;51.798;10.954;2023-12-29T02:42:12;33.59;29.15;48.13;;
63692;Laerm;49838;51.798;10.954;2023-12-29T02:44:39;33.10;29.34;47.95;;
63692;Laerm;49838;51.798;10.954;2023-12-29T02:47:07;36.95;29.48;54.06;;
63692;Laerm;49838;51.798;10.954;2023-12-29T02:49:34;32.22;28.95;44.99;;
63692;Laerm;49838;51.798;10.954;2023-12-29T02:52:01;34.73;29.19;50.63;;
63692;Laerm;49838;51.798;10.954;2023-12-29T02:54:28;32.32;29.31;41.70;;
63692;Laerm;49838;51.798;10.954;2023-12-29T02:56:56;34.52;29.66;44.69;;
63692;Laerm;49838;51.798;10.954;2023-12-29T02:59:24;40.25;30.92;64.01;;
63692;Laerm;49838;51.798;10.954;2023-12-29T03:01:52;38.04;30.90;54.58;;
63692;Laerm;49838;51.798;10.954;2023-12-29T03:04:19;32.90;30.41;38.25;;
63692;Laerm;49838;51.798;10.954;2023-12-29T03:06:46;34.92;31.37;46.44;;
63692;Laerm;49838;51.798;10.954;2023-12-29T03:09:14;35.11;31.39;48.91;;
63692;Laerm;49838;51.798;10.954;2023-12-29T03:11:41;38.37;32.19;60.52;;
63692;Laerm;49838;51.798;10.954;2023-12-29T03:14:08;40.25;32.65;55.59;;
63692;Laerm;49838;51.798;10.954;2023-12-29T03:16:37;39.54;33.06;53.87;;
63692;Laerm;49838;51.798;10.954;2023-12-29T03:19:04;40.04;35.11;56.40;;
63692;Laerm;49838;51.798;10.954;2023-12-29T03:21:31;41.79;34.18;55.67;;
63692;Laerm;49838;51.798;10.954;2023-12-29T03:23:59;46.04;36.16;63.45;;
63692;Laerm;49838;51.798;10.954;2023-12-29T03:26:26;45.22;32.97;70.29;;
63692;Laerm;49838;51.798;10.954;2023-12-29T03:28:54;40.00;33.74;54.01;;
63692;Laerm;49838;51.798;10.954;2023-12-29T03:31:22;47.83;34.58;68.70;;
63692;Laerm;49838;51.798;10.954;2023-12-29T03:33:50;50.24;36.06;74.96;;
63692;Laerm;49838;51.798;10.954;2023-12-29T03:36:18;51.45;39.17;72.46;;
63692;Laerm;49838;51.798;10.954;2023-12-29T03:38:45;49.58;39.27;67.04;;
63692;Laerm;49838;51.798;10.954;2023-12-29T03:41:12;53.45;39.68;74.03;;
63692;Laerm;49838;51.798;10.954;2023-12-29T03:43:39;47.61;32.59;67.29;;
63692;Laerm;49838;51.798;10.954;2023-12-29T03:46:15;39.48;33.19;50.11;;
63692;Laerm;49838;51.798;10.954;2023-12-29T03:48:42;43.73;35.56;58.43;;
63692;Laerm;49838;51.798;10.954;2023-12-29T03:51:11;42.71;33.68;65.11;;
63692;Laerm;49838;51.798;10.954;2023-12-29T03:53:38;39.85;35.18;51.65;;
63692;Laerm;49838;51.798;10.954;2023-12-29T03:56:06;39.67;32.60;56.08;;
63692;Laerm;49838;51.798;10.954;2023-12-29T03:58:33;41.73;34.33;58.44;;
63692;Laerm;49838;51.798;10.954;2023-12-29T04:01:01;43.57;35.64;71.01;;
63692;Laerm;49838;51.798;10.954;2023-12-29T04:03:28;46.53;32.20;63.69;;
63692;Laerm;49838;51.798;10.954;2023-12-29T04:05:55;37.73;33.03;48.81;;
63692;Laerm;49838;51.798;10.954;2023-12-29T04:08:24;42.48;34.13;58.00;;
63692;Laerm;49838;51.798;10.954;2023-12-29T04:10:51;48.95;37.50;68.50;;
63692;Laerm;49838;51.798;10.954;2023-12-29T04:13:19;40.60;32.96;61.44;;
63692;Laerm;49838;51.798;10.954;2023-12-29T04:15:46;42.73;33.31;64.48;;
63692;Laerm;49838;51.798;10.954;2023-12-29T04:18:13;39.85;33.29;56.52;;
63692;Laerm;49838;51.798;10.954;2023-12-29T04:20:41;51.48;35.19;71.06;;
63692;Laerm;49838;51.798;10.954;2023-12-29T04:23:08;42.92;34.71;58.61;;
63692;Laerm;49838;51.798;10.954;2023-12-29T04:25:37;51.03;38.24;72.54;;
63692;Laerm;49838;51.798;10.954;2023-12-29T04:28:04;53.43;36.19;68.81;;
63692;Laerm;49838;51.798;10.954;2023-12-29T04:30:32;45.41;35.45;61.48;;
63692;Laerm;49838;51.798;10.954;2023-12-29T04:32:59;43.23;34.60;63.23;;
63692;Laerm;49838;51.798;10.954;2023-12-29T04:35:26;52.03;38.00;67.10;;
63692;Laerm;49838;51.798;10.954;2023-12-29T04:37:54;47.18;37.31;64.43;;
63692;Laerm;49838;51.798;10.954;2023-12-29T04:40:21;45.37;35.69;58.43;;
63692;Laerm;49838;51.798;10.954;2023-12-29T04:42:50;48.64;36.60;70.40;;
63692;Laerm;49838;51.798;10.954;2023-12-29T04:45:17;39.47;34.27;49.04;;
63692;Laerm;49838;51.798;10.954;2023-12-29T04:47:44;53.41;38.73;73.88;;
63692;Laerm;49838;51.798;10.954;2023-12-29T04:50:12;52.63;37.21;72.61;;
63692;Laerm;49838;51.798;10.954;2023-12-29T04:52:39;43.03;38.53;59.99;;
63692;Laerm;49838;51.798;10.954;2023-12-29T04:55:07;55.35;37.75;75.08;;
63692;Laerm;49838;51.798;10.954;2023-12-29T04:57:34;49.34;37.79;68.46;;
63692;Laerm;49838;51.798;10.954;2023-12-29T05:00:04;45.80;37.80;65.42;;
63692;Laerm;49838;51.798;10.954;2023-12-29T05:02:31;47.46;39.40;68.42;;
63692;Laerm;49838;51.798;10.954;2023-12-29T05:04:58;44.49;38.26;60.68;;
63692;Laerm;49838;51.798;10.954;2023-12-29T05:07:26;47.91;38.86;70.05;;
63692;Laerm;49838;51.798;10.954;2023-12-29T05:09:53;44.78;37.68;60.53;;
63692;Laerm;49838;51.798;10.954;2023-12-29T05:12:21;42.06;35.99;55.55;;
63692;Laerm;49838;51.798;10.954;2023-12-29T05:14:48;57.61;39.57;81.96;;
63692;Laerm;49838;51.798;10.954;2023-12-29T05:17:17;58.58;38.86;75.24;;
63692;Laerm;49838;51.798;10.954;2023-12-29T05:19:44;56.94;38.58;78.04;;
63692;Laerm;49838;51.798;10.954;2023-12-29T05:22:11;53.60;37.90;72.84;;
63692;Laerm;49838;51.798;10.954;2023-12-29T05:24:42;44.52;37.73;58.45;;
63692;Laerm;49838;51.798;10.954;2023-12-29T05:27:09;52.33;40.68;67.57;;
63692;Laerm;49838;51.798;10.954;2023-12-29T05:29:36;49.58;37.10;68.36;;
63692;Laerm;49838;51.798;10.954;2023-12-29T05:32:04;45.07;35.28;60.39;;
63692;Laerm;49838;51.798;10.954;2023-12-29T05:34:33;61.39;38.71;79.06;;
63692;Laerm;49838;51.798;10.954;2023-12-29T05:37:01;50.36;36.95;66.94;;
63692;Laerm;49838;51.798;10.954;2023-12-29T05:39:28;42.42;35.99;59.58;;
63692;Laerm;49838;51.798;10.954;2023-12-29T05:41:56;43.81;36.66;64.57;;
63692;Laerm;49838;51.798;10.954;2023-12-29T05:44:23;43.69;35.80;61.92;;
63692;Laerm;49838;51.798;10.954;2023-12-29T05:46:50;56.04;38.06;70.55;;
63692;Laerm;49838;51.798;10.954;2023-12-29T05:49:18;43.44;35.91;58.16;;
63692;Laerm;49838;51.798;10.954;2023-12-29T05:51:46;52.61;36.60;70.12;;
63692;Laerm;49838;51.798;10.954;2023-12-29T05:54:14;59.02;37.41;78.32;;
63692;Laerm;49838;51.798;10.954;2023-12-29T05:56:41;43.86;36.75;58.17;;
63692;Laerm;49838;51.798;10.954;2023-12-29T05:59:08;50.68;37.90;66.58;;
63692;Laerm;49838;51.798;10.954;2023-12-29T06:01:35;49.19;36.29;65.20;;
63692;Laerm;49838;51.798;10.954;2023-12-29T06:04:03;45.15;35.09;66.88;;
63692;Laerm;49838;51.798;10.954;2023-12-29T06:06:30;44.15;35.03;63.59;;
63692;Laerm;49838;51.798;10.954;2023-12-29T06:08:59;41.12;36.02;59.22;;
63692;Laerm;49838;51.798;10.954;2023-12-29T06:11:26;49.22;36.99;64.15;;
63692;Laerm;49838;51.798;10.954;2023-12-29T06:13:54;40.76;35.91;52.70;;
63692;Laerm;49838;51.798;10.954;2023-12-29T06:16:21;41.85;35.85;58.66;;
63692;Laerm;49838;51.798;10.954;2023-12-29T06:18:49;56.22;36.50;66.48;;
63692;Laerm;49838;51.798;10.954;2023-12-29T06:21:17;63.18;40.76;78.75;;
63692;Laerm;49838;51.798;10.954;2023-12-29T06:23:45;54.56;39.30;70.71;;
63692;Laerm;49838;51.798;10.954;2023-12-29T06:26:17;56.71;37.35;73.57;;
63692;Laerm;49838;51.798;10.954;2023-12-29T06:28:45;46.00;37.20;64.45;;
63692;Laerm;49838;51.798;10.954;2023-12-29T06:31:13;48.61;37.93;65.91;;
63692;Laerm;49838;51.798;10.954;2023-12-29T06:33:40;62.06;39.15;78.88;;
63692;Laerm;49838;51.798;10.954;2023-12-29T06:36:09;46.19;37.36;63.13;;
63692;Laerm;49838;51.798;10.954;2023-12-29T06:38:36;54.29;39.31;68.34;;
63692;Laerm;49838;51.798;10.954;2023-12-29T06:41:04;56.35;38.77;71.35;;
63692;Laerm;49838;51.798;10.954;2023-12-29T06:43:32;52.73;39.01;69.17;;
63692;Laerm;49838;51.798;10.954;2023-12-29T06:46:00;48.37;39.87;65.04;;
63692;Laerm;49838;51.798;10.954;2023-12-29T06:48:27;59.29;38.52;75.13;;
63692;Laerm;49838;51.798;10.954;2023-12-29T06:50:55;54.94;39.40;73.73;;
63692;Laerm;49838;51.798;10.954;2023-12-29T06:53:22;61.95;39.22;81.19;;
63692;Laerm;49838;51.798;10.954;2023-12-29T06:55:49;59.60;41.30;78.75;;
63692;Laerm;49838;51.798;10.954;2023-12-29T06:58:16;54.69;39.45;73.25;;
63692;Laerm;49838;51.798;10.954;2023-12-29T07:00:45;58.19;38.70;74.66;;
63692;Laerm;49838;51.798;10.954;2023-12-29T07:03:13;53.85;38.49;70.33;;
63692;Laerm;49838;51.798;10.954;2023-12-29T07:05:41;54.72;40.44;70.53;;
63692;Laerm;49838;51.798;10.954;2023-12-29T07:08:08;53.23;39.23;69.08;;
63692;Laerm;49838;51.798;10.954;2023-12-29T07:10:35;48.90;41.37;64.95;;
63692;Laerm;49838;51.798;10.954;2023-12-29T07:13:03;50.34;38.61;67.19;;
63692;Laerm;49838;51.798;10.954;2023-12-29T07:15:30;47.05;38.14;59.57;;
63692;Laerm;49838;51.798;10.954;2023-12-29T07:17:59;54.99;38.54;73.53;;
63692;Laerm;49838;51.798;10.954;2023-12-29T07:20:26;46.45;38.66;63.73;;
63692;Laerm;49838;51.798;10.954;2023-12-29T07:22:54;55.19;39.53;71.38;;
63692;Laerm;49838;51.798;10.954;2023-12-29T07:25:21;46.92;38.57;67.26;;
63692;Laerm;49838;51.798;10.954;2023-12-29T07:27:49;55.68;41.91;72.77;;
63692;Laerm;49838;51.798;10.954;2023-12-29T07:30:17;60.41;42.73;75.88;;
63692;Laerm;49838;51.798;10.954;2023-12-29T07:32:44;61.52;40.15;77.46;;
63692;Laerm;49838;51.798;10.954;2023-12-29T07:35:12;52.14;40.73;69.72;;
63692;Laerm;49838;51.798;10.954;2023-12-29T07:37:43;52.84;40.81;69.79;;
63692;Laerm;49838;51.798;10.954;2023-12-29T07:40:11;54.93;41.69;71.00;;
63692;Laerm;49838;51.798;10.954;2023-12-29T07:42:39;54.53;40.32;73.71;;
63692;Laerm;49838;51.798;10.954;2023-12-29T07:45:07;51.94;39.21;67.62;;
63692;Laerm;49838;51.798;10.954;2023-12-29T07:47:35;56.34;42.24;73.36;;
63692;Laerm;49838;51.798;10.954;2023-12-29T07:50:02;59.16;40.82;73.70;;
63692;Laerm;49838;51.798;10.954;2023-12-29T07:52:31;56.02;41.09;74.75;;
63692;Laerm;49838;51.798;10.954;2023-12-29T07:54:59;62.33;41.09;79.00;;
63692;Laerm;49838;51.798;10.954;2023-12-29T07:57:26;57.43;40.65;75.45;;
63692;Laerm;49838;51.798;10.954;2023-12-29T07:59:53;58.75;41.89;76.24;;
63692;Laerm;49838;51.798;10.954;2023-12-29T08:02:20;56.84;42.84;72.52;;
63692;Laerm;49838;51.798;10.954;2023-12-29T08:04:48;56.88;39.58;76.11;;
63692;Laerm;49838;51.798;10.954;2023-12-29T08:07:15;54.93;39.80;68.93;;
63692;Laerm;49838;51.798;10.954;2023-12-29T08:09:44;52.83;40.23;68.90;;
63692;Laerm;49838;51.798;10.954;2023-12-29T08:12:11;62.53;42.98;80.88;;
63692;Laerm;49838;51.798;10.954;2023-12-29T08:14:39;58.51;42.05;71.40;;
63692;Laerm;49838;51.798;10.954;2023-12-29T08:17:06;57.88;40.11;72.66;;
63692;Laerm;49838;51.798;10.954;2023-12-29T08:19:35;57.40;43.42;71.39;;
63692;Laerm;49838;51.798;10.954;2023-12-29T08:22:03;58.93;41.44;77.94;;
63692;Laerm;49838;51.798;10.954;2023-12-29T08:24:30;57.42;42.35;76.74;;
63692;Laerm;49838;51.798;10.954;2023-12-29T08:26:58;59.28;43.20;72.79;;
63692;Laerm;49838;51.798;10.954;2023-12-29T08:29:26;50.48;39.74;70.24;;
63692;Laerm;49838;51.798;10.954;2023-12-29T08:31:53;64.03;41.13;81.69;;
63692;Laerm;49838;51.798;10.954;2023-12-29T08:34:20;60.98;41.30;78.78;;
63692;Laerm;49838;51.798;10.954;2023-12-29T08:36:48;59.66;40.03;74.73;;
63692;Laerm;49838;51.798;10.954;2023-12-29T08:39:15;56.48;40.47;72.00;;
63692;Laerm;49838;51.798;10.954;2023-12-29T08:41:42;57.85;40.90;73.24;;
63692;Laerm;49838;51.798;10.954;2023-12-29T08:44:11;59.81;39.90;74.26;;
63692;Laerm;49838;51.798;10.954;2023-12-29T08:46:38;58.30;41.05;72.06;;
63692;Laerm;49838;51.798;10.954;2023-12-29T08:49:05;61.02;40.11;76.07;;
63692;Laerm;49838;51.798;10.954;2023-12-29T08:51:33;60.95;41.04;76.95;;
63692;Laerm;49838;51.798;10.954;2023-12-29T08:54:00;58.24;41.51;76.17;;
63692;Laerm;49838;51.798;10.954;2023-12-29T08:56:28;61.89;39.73;92.32;;
63692;Laerm;49838;51.798;10.954;2023-12-29T08:58:56;56.39;41.31;71.10;;
63692;Laerm;49838;51.798;10.954;2023-12-29T09:01:26;56.79;39.60;71.23;;
63692;Laerm;49838;51.798;10.954;2023-12-29T09:03:54;59.17;37.59;75.21;;
63692;Laerm;49838;51.798;10.954;2023-12-29T09:06:21;59.53;38.96;74.69;;
63692;Laerm;49838;51.798;10.954;2023-12-29T09:08:48;57.69;40.23;70.69;;
63692;Laerm;49838;51.798;10.954;2023-12-29T09:11:16;57.57;39.90;72.11;;
63692;Laerm;49838;51.798;10.954;2023-12-29T09:13:43;54.61;39.13;73.03;;
63692;Laerm;49838;51.798;10.954;2023-12-29T09:16:10;59.41;40.47;73.58;;
63692;Laerm;49838;51.798;10.954;2023-12-29T09:18:39;57.27;41.00;72.00;;
63692;Laerm;49838;51.798;10.954;2023-12-29T09:21:06;56.97;41.63;73.38;;
63692;Laerm;49838;51.798;10.954;2023-12-29T09:23:34;59.05;39.30;75.27;;
63692;Laerm;49838;51.798;10.954;2023-12-29T09:26:04;57.66;40.95;70.96;;
63692;Laerm;49838;51.798;10.954;2023-12-29T09:28:33;51.25;40.29;65.52;;
63692;Laerm;49838;51.798;10.954;2023-12-29T09:31:00;57.54;40.22;72.81;;
63692;Laerm;49838;51.798;10.954;2023-12-29T09:33:27;61.34;40.16;79.01;;
63692;Laerm;49838;51.798;10.954;2023-12-29T09:35:56;56.78;41.06;71.88;;
63692;Laerm;49838;51.798;10.954;2023-12-29T09:38:23;53.25;42.98;68.04;;
63692;Laerm;49838;51.798;10.954;2023-12-29T09:40:52;56.95;39.97;71.45;;
63692;Laerm;49838;51.798;10.954;2023-12-29T09:43:20;44.73;40.18;56.64;;
63692;Laerm;49838;51.798;10.954;2023-12-29T09:45:48;61.42;40.01;73.66;;
63692;Laerm;49838;51.798;10.954;2023-12-29T09:48:19;61.52;40.69;74.29;;
63692;Laerm;49838;51.798;10.954;2023-12-29T09:50:50;60.86;40.80;76.24;;
63692;Laerm;49838;51.798;10.954;2023-12-29T09:53:20;58.26;40.75;77.28;;
63692;Laerm;49838;51.798;10.954;2023-12-29T09:55:48;59.67;39.31;73.31;;
63692;Laerm;49838;51.798;10.954;2023-12-29T09:58:17;60.27;38.79;73.18;;
63692;Laerm;49838;51.798;10.954;2023-12-29T10:00:46;56.43;38.69;69.98;;
63692;Laerm;49838;51.798;10.954;2023-12-29T10:03:16;57.07;40.42;69.95;;
63692;Laerm;49838;51.798;10.954;2023-12-29T10:05:44;55.91;37.44;74.21;;
63692;Laerm;49838;51.798;10.954;2023-12-29T10:08:17;58.91;39.24;73.65;;
63692;Laerm;49838;51.798;10.954;2023-12-29T10:10:47;58.17;38.59;73.33;;
63692;Laerm;49838;51.798;10.954;2023-12-29T10:13:17;45.07;37.78;62.18;;
63692;Laerm;49838;51.798;10.954;2023-12-29T10:15:49;58.15;42.44;71.32;;
63692;Laerm;49838;51.798;10.954;2023-12-29T10:18:29;57.56;40.43;70.09;;
63692;Laerm;49838;51.798;10.954;2023-12-29T10:21:01;60.14;39.82;77.38;;
63692;Laerm;49838;51.798;10.954;2023-12-29T10:23:33;58.76;41.11;73.34;;
63692;Laerm;49838;51.798;10.954;2023-12-29T10:26:05;61.11;41.40;74.09;;
63692;Laerm;49838;51.798;10.954;2023-12-29T10:28:32;62.59;41.14;79.66;;
63692;Laerm;49838;51.798;10.954;2023-12-29T10:31:00;53.67;38.99;69.59;;
63692;Laerm;49838;51.798;10.954;2023-12-29T10:33:28;63.00;41.66;79.54;;
63692;Laerm;49838;51.798;10.954;2023-12-29T10:35:57;61.07;41.43;79.07;;
63692;Laerm;49838;51.798;10.954;2023-12-29T10:38:28;59.40;41.18;72.57;;
63692;Laerm;49838;51.798;10.954;2023-12-29T10:41:11;56.71;40.25;75.60;;
63692;Laerm;49838;51.798;10.954;2023-12-29T10:43:40;56.61;41.13;73.61;;
63692;Laerm;49838;51.798;10.954;2023-12-29T10:46:08;55.75;40.28;71.95;;
63692;Laerm;49838;51.798;10.954;2023-12-29T10:48:36;57.85;42.40;70.20;;
63692;Laerm;49838;51.798;10.954;2023-12-29T10:51:04;58.18;40.87;72.51;;
63692;Laerm;49838;51.798;10.954;2023-12-29T10:53:32;61.46;40.74;76.65;;
63692;Laerm;49838;51.798;10.954;2023-12-29T10:56:00;58.37;39.72;73.64;;
63692;Laerm;49838;51.798;10.954;2023-12-29T10:58:29;58.73;43.55;74.89;;
63692;Laerm;49838;51.798;10.954;2023-12-29T11:00:59;59.05;41.44;73.48;;
63692;Laerm;49838;51.798;10.954;2023-12-29T11:03:26;59.54;45.46;74.33;;
63692;Laerm;49838;51.798;10.954;2023-12-29T11:05:58;59.03;43.83;73.76;;
63692;Laerm;49838;51.798;10.954;2023-12-29T11:08:27;59.74;42.84;74.37;;
63692;Laerm;49838;51.798;10.954;2023-12-29T11:10:54;54.48;42.62;69.10;;
63692;Laerm;49838;51.798;10.954;2023-12-29T11:13:22;58.01;42.42;75.16;;
63692;Laerm;49838;51.798;10.954;2023-12-29T11:15:52;58.02;42.17;74.71;;
63692;Laerm;49838;51.798;10.954;2023-12-29T11:18:20;61.48;44.49;74.55;;
63692;Laerm;49838;51.798;10.954;2023-12-29T11:20:49;60.80;43.28;78.49;;
63692;Laerm;49838;51.798;10.954;2023-12-29T11:23:16;58.36;41.38;73.46;;
63692;Laerm;49838;51.798;10.954;2023-12-29T11:25:44;61.44;43.25;76.51;;
63692;Laerm;49838;51.798;10.954;2023-12-29T11:28:12;59.60;41.50;74.90;;
63692;Laerm;49838;51.798;10.954;2023-12-29T11:30:40;60.15;41.97;74.95;;
63692;Laerm;49838;51.798;10.954;2023-12-29T11:33:14;62.93;41.35;76.62;;
63692;Laerm;49838;51.798;10.954;2023-12-29T11:35:44;59.74;41.99;76.16;;
63692;Laerm;49838;51.798;10.954;2023-12-29T11:38:25;59.82;41.92;74.84;;
63692;Laerm;49838;51.798;10.954;2023-12-29T11:41:00;59.09;42.75;74.60;;
63692;Laerm;49838;51.798;10.954;2023-12-29T11:43:29;56.71;42.02;74.19;;
63692;Laerm;49838;51.798;10.954;2023-12-29T11:45:57;59.41;42.82;75.47;;
63692;Laerm;49838;51.798;10.954;2023-12-29T11:48:56;61.03;40.79;75.18;;
63692;Laerm;49838;51.798;10.954;2023-12-29T11:51:28;60.99;42.38;74.80;;
63692;Laerm;49838;51.798;10.954;2023-12-29T11:53:56;59.17;41.85;73.59;;
63692;Laerm;49838;51.798;10.954;2023-12-29T11:56:23;57.66;45.40;72.27;;
63692;Laerm;49838;51.798;10.954;2023-12-29T11:58:51;60.76;46.15;73.10;;
63692;Laerm;49838;51.798;10.954;2023-12-29T12:01:33;57.29;44.43;72.99;;
63692;Laerm;49838;51.798;10.954;2023-12-29T12:04:03;59.80;44.50;75.88;;
63692;Laerm;49838;51.798;10.954;2023-12-29T12:06:37;60.40;43.07;74.15;;
63692;Laerm;49838;51.798;10.954;2023-12-29T12:09:22;60.83;44.20;81.66;;
63692;Laerm;49838;51.798;10.954;2023-12-29T12:11:50;61.09;44.17;75.79;;
63692;Laerm;49838;51.798;10.954;2023-12-29T12:14:49;59.83;43.34;76.41;;
63692;Laerm;49838;51.798;10.954;2023-12-29T12:17:27;61.47;46.31;74.71;;
63692;Laerm;49838;51.798;10.954;2023-12-29T12:20:01;62.23;43.68;80.77;;
63692;Laerm;49838;51.798;10.954;2023-12-29T12:22:31;57.58;43.65;80.53;;
63692;Laerm;49838;51.798;10.954;2023-12-29T12:24:59;59.61;44.09;73.36;;
63692;Laerm;49838;51.798;10.954;2023-12-29T12:27:27;56.87;45.26;72.66;;
63692;Laerm;49838;51.798;10.954;2023-12-29T12:29:56;57.59;43.81;77.06;;
63692;Laerm;49838;51.798;10.954;2023-12-29T12:32:25;58.71;45.13;76.36;;
63692;Laerm;49838;51.798;10.954;2023-12-29T12:34:52;64.31;46.05;78.46;;
63692;Laerm;49838;51.798;10.954;2023-12-29T12:37:22;60.23;44.65;75.50;;
63692;Laerm;49838;51.798;10.954;2023-12-29T12:39:50;62.24;43.37;80.87;;
63692;Laerm;49838;51.798;10.954;2023-12-29T12:42:18;63.82;45.85;77.53;;
63692;Laerm;49838;51.798;10.954;2023-12-29T12:44:48;59.60;43.16;74.17;;
63692;Laerm;49838;51.798;10.954;2023-12-29T12:47:22;63.16;45.44;81.57;;
63692;Laerm;49838;51.798;10.954;2023-12-29T12:49:51;58.51;45.11;75.35;;
63692;Laerm;49838;51.798;10.954;2023-12-29T12:52:18;63.99;45.46;84.35;;
63692;Laerm;49838;51.798;10.954;2023-12-29T12:54:48;60.58;44.59;75.52;;
63692;Laerm;49838;51.798;10.954;2023-12-29T12:57:19;59.27;45.00;76.99;;
63692;Laerm;49838;51.798;10.954;2023-12-29T12:59:47;62.96;44.86;79.30;;
63692;Laerm;49838;51.798;10.954;2023-12-29T13:02:16;59.63;42.91;73.98;;
63692;Laerm;49838;51.798;10.954;2023-12-29T13:04:46;58.14;41.70;77.62;;
63692;Laerm;49838;51.798;10.954;2023-12-29T13:07:15;51.34;41.12;67.62;;
63692;Laerm;49838;51.798;10.954;2023-12-29T13:09:43;62.06;41.48;77.58;;
63692;Laerm;49838;51.798;10.954;2023-12-29T13:12:13;48.47;40.43;62.83;;
63692;Laerm;49838;51.798;10.954;2023-12-29T13:14:42;61.08;44.16;75.24;;
63692;Laerm;49838;51.798;10.954;2023-12-29T13:17:10;59.19;42.67;74.87;;
63692;Laerm;49838;51.798;10.954;2023-12-29T13:19:38;60.57;42.98;79.09;;
63692;Laerm;49838;51.798;10.954;2023-12-29T13:22:08;60.12;43.50;75.82;;
63692;Laerm;49838;51.798;10.954;2023-12-29T13:24:42;58.16;43.37;75.00;;
63692;Laerm;49838;51.798;10.954;2023-12-29T13:27:12;59.72;42.69;79.34;;
63692;Laerm;49838;51.798;10.954;2023-12-29T13:29:40;59.23;42.59;75.06;;
63692;Laerm;49838;51.798;10.954;2023-12-29T13:32:10;57.58;41.05;72.04;;
63692;Laerm;49838;51.798;10.954;2023-12-29T13:34:50;62.48;42.26;79.00;;
63692;Laerm;49838;51.798;10.954;2023-12-29T13:37:24;59.35;42.08;74.55;;
63692;Laerm;49838;51.798;10.954;2023-12-29T13:39:57;58.65;41.19;71.82;;